x

Buzzards Bay, Ma (buzm3) Weather Station

12:00 - Thu 25th May 2017 All times are EDT. -4 hours from GMT.

  • Wind
    14mph, 14mph gusts
  • Luft Temp 55°f
  • Sea Pressure 1011.4mb
  • Buzzards Bay, Ma
  • Buzzards Bay, Ma

More Historic Weather Station data

Upgrade to MSW Pro to gain access to the past 30 days of data for over 8000 Wavebouys and Weather Stations around the globe.

Join Pro

Comparision Forecast

View Surf forecast
   
Do 05/25 12:00 14 14 mph 1011.4mb 55f
Mi 05/24 11:00 14 15 mph 1011.1mb 56f
10:00 17 17 mph 1011mb 56f
9:00 13 14 mph 1010.8mb 57f
8:00 15 16 mph 1009.5mb 58f
7:00 13 14 mph 1008.8mb 57f
6:00 17 17 mph 1009.9mb 57f
5:00 20 21 mph 1008.9mb 58f
4:00 21 22 mph 1008.5mb 58f
3:00 23 25 mph 1007.7mb 56f
2:00 14 15 mph 1009.3mb 56f
1:00 18 20 mph 1008.6mb 56f
12:00 10 13 mph 1008.6mb 56f
11:00 8 8 mph 1008.2mb 56f
10:00 15 16 mph 1007.9mb 56f
9:00 16 17 mph 1007.9mb 56f
8:00 15 15 mph 1007.7mb 55f
7:00 8 8 mph 1008.2mb 55f
6:00 8 8 mph 1008.4mb 55f
5:00 6 7 mph 1008.4mb 55f
4:00 7 7 mph 1008.2mb 55f
3:00 6 6 mph 1008.7mb 55f
2:00 6 7 mph 1009.2mb 56f
1:00 10 11 mph 1009.9mb 55f
12:00 13 13 mph 1010.8mb 56f
Di 05/23 11:00 8 8 mph 1011.2mb 55f
10:00 13 14 mph 1011.3mb 55f
9:00 14 16 mph 1011.1mb 55f
8:00 11 11 mph 1010.8mb 55f
7:00 14 14 mph 1010.7mb 55f
6:00 11 11 mph 1010.5mb 55f
5:00 13 13 mph 1010.3mb 56f
4:00 11 11 mph 1010.9mb 58f
3:00 6 6 mph 1011.3mb 62f
2:00 3 3 mph 1011.3mb 60f
1:00 3 5 mph 1011.9mb 58f
12:00 6 6 mph 1013.3mb 57f
11:00 8 9 mph 1013.4mb 56f
10:00 15 15 mph 1013.3mb 56f
9:00 13 14 mph 1013.6mb 57f
8:00 13 14 mph 1013.3mb 56f
7:00 14 14 mph 1013.5mb 56f
6:00 10 10 mph 1013.2mb 56f
5:00 10 11 mph 1013mb 56f
4:00 8 8 mph 1013mb 55f
3:00 2 2 mph 1012.8mb 55f
2:00 11 11 mph 1013.4mb 55f
1:00 18 20 mph 1013.4mb 55f
12:00 22 24 mph 1013.7mb 55f
Mo 05/22 11:00 22 25 mph 1014.7mb 55f
10:00 24 25 mph 1015.3mb 54f
9:00 24 26 mph 1016mb 54f
8:00 21 24 mph 1016.5mb 54f
7:00 21 23 mph 1017.1mb 53f
6:00 21 23 mph 1017.6mb 53f
5:00 17 18 mph 1018.9mb 52f
4:00 14 14 mph 1019.7mb 51f
3:00 13 14 mph 1020.4mb 52f
2:00 14 15 mph 1021.1mb 53f
1:00 20 21 mph 1021.2mb 53f
12:00 16 17 mph 1022mb 53f
11:00 16 17 mph 1022.7mb 53f
10:00 17 18 mph 1023.1mb 53f
9:00 11 13 mph 1023.8mb 53f
8:00 9 9 mph 1024mb 52f
7:00 8 9 mph 1024.3mb 52f
6:00 8 9 mph 1024.4mb 53f
5:00 7 7 mph 1024.4mb 53f
4:00 9 9 mph 1023.7mb 53f
3:00 10 10 mph 1024.2mb 53f
2:00 10 10 mph 1024.6mb 53f
1:00 11 11 mph 1025mb 53f
12:00 10 11 mph 1025.5mb 54f
So 05/21 11:00 9 10 mph 1026.2mb 54f
10:00 10 11 mph 1026.4mb 54f
9:00 10 11 mph 1026.7mb 54f
8:00 9 10 mph 1026.7mb 54f
7:00 9 10 mph 1026.9mb 54f
6:00 13 13 mph 1026.9mb 54f
5:00 11 11 mph 1027.1mb 55f
4:00 11 11 mph 1027.5mb 56f
3:00 10 10 mph 1027.7mb 56f
2:00 8 8 mph 1028mb 57f
1:00 10 10 mph 1028.8mb 56f
12:00 7 7 mph 1029.3mb 56f
11:00 6 6 mph 1029.8mb 55f
10:00 2 2 mph 1029.5mb 55f
9:00 1 1 mph 1029.2mb 53f
8:00 5 5 mph 1029.4mb 52f
7:00 3 5 mph 1029.3mb 53f
6:00 7 7 mph 1028.6mb 52f